sensor_id;sensor_type;location;lat;lon;timestamp;P1;durP1;ratioP1;P2;durP2;ratioP2
72611;SDS011;60655;52.182;4.474;2023-07-13T00:01:05;11.23;;;1.60;;
72611;SDS011;60655;52.182;4.474;2023-07-13T00:03:06;6.78;;;1.17;;
72611;SDS011;60655;52.182;4.474;2023-07-13T00:05:08;7.70;;;1.20;;
72611;SDS011;60655;52.182;4.474;2023-07-13T00:07:09;7.15;;;1.30;;
72611;SDS011;60655;52.182;4.474;2023-07-13T00:09:11;5.60;;;1.00;;
72611;SDS011;60655;52.182;4.474;2023-07-13T00:11:14;13.25;;;1.75;;
72611;SDS011;60655;52.182;4.474;2023-07-13T00:13:16;9.00;;;1.15;;
72611;SDS011;60655;52.182;4.474;2023-07-13T00:15:19;7.93;;;1.00;;
72611;SDS011;60655;52.182;4.474;2023-07-13T00:17:23;6.65;;;1.13;;
72611;SDS011;60655;52.182;4.474;2023-07-13T00:19:25;6.25;;;1.00;;
72611;SDS011;60655;52.182;4.474;2023-07-13T00:21:26;8.65;;;1.58;;
72611;SDS011;60655;52.182;4.474;2023-07-13T00:23:27;7.22;;;1.30;;
72611;SDS011;60655;52.182;4.474;2023-07-13T00:25:28;9.10;;;1.17;;
72611;SDS011;60655;52.182;4.474;2023-07-13T00:27:29;7.95;;;1.08;;
72611;SDS011;60655;52.182;4.474;2023-07-13T00:29:32;5.70;;;1.20;;
72611;SDS011;60655;52.182;4.474;2023-07-13T00:31:34;4.90;;;1.10;;
72611;SDS011;60655;52.182;4.474;2023-07-13T00:33:36;9.32;;;1.80;;
72611;SDS011;60655;52.182;4.474;2023-07-13T00:35:37;7.85;;;1.27;;
72611;SDS011;60655;52.182;4.474;2023-07-13T00:37:40;4.88;;;1.08;;
72611;SDS011;60655;52.182;4.474;2023-07-13T00:39:41;11.13;;;1.60;;
72611;SDS011;60655;52.182;4.474;2023-07-13T00:41:42;9.38;;;1.10;;
72611;SDS011;60655;52.182;4.474;2023-07-13T00:43:44;8.10;;;1.55;;
72611;SDS011;60655;52.182;4.474;2023-07-13T00:47:59;8.63;;;1.42;;
72611;SDS011;60655;52.182;4.474;2023-07-13T00:50:00;9.10;;;1.38;;
72611;SDS011;60655;52.182;4.474;2023-07-13T00:52:06;7.97;;;1.50;;
72611;SDS011;60655;52.182;4.474;2023-07-13T00:54:10;7.18;;;1.20;;
72611;SDS011;60655;52.182;4.474;2023-07-13T00:56:14;6.78;;;1.13;;
72611;SDS011;60655;52.182;4.474;2023-07-13T00:58:15;9.20;;;1.20;;
72611;SDS011;60655;52.182;4.474;2023-07-13T01:00:16;8.80;;;1.33;;
72611;SDS011;60655;52.182;4.474;2023-07-13T01:02:18;4.72;;;1.10;;
72611;SDS011;60655;52.182;4.474;2023-07-13T01:04:23;9.23;;;1.40;;
72611;SDS011;60655;52.182;4.474;2023-07-13T01:06:25;7.53;;;1.50;;
72611;SDS011;60655;52.182;4.474;2023-07-13T01:08:26;8.75;;;1.20;;
72611;SDS011;60655;52.182;4.474;2023-07-13T01:10:27;7.00;;;1.23;;
72611;SDS011;60655;52.182;4.474;2023-07-13T01:12:28;4.10;;;0.88;;
72611;SDS011;60655;52.182;4.474;2023-07-13T01:14:31;9.80;;;1.13;;
72611;SDS011;60655;52.182;4.474;2023-07-13T01:16:32;7.75;;;1.58;;
72611;SDS011;60655;52.182;4.474;2023-07-13T01:18:36;4.53;;;0.90;;
72611;SDS011;60655;52.182;4.474;2023-07-13T01:20:37;8.82;;;1.02;;
72611;SDS011;60655;52.182;4.474;2023-07-13T01:22:39;7.60;;;1.13;;
72611;SDS011;60655;52.182;4.474;2023-07-13T01:24:41;5.30;;;1.20;;
72611;SDS011;60655;52.182;4.474;2023-07-13T01:26:44;6.10;;;1.20;;
72611;SDS011;60655;52.182;4.474;2023-07-13T01:28:45;5.25;;;1.27;;
72611;SDS011;60655;52.182;4.474;2023-07-13T01:30:46;4.72;;;0.85;;
72611;SDS011;60655;52.182;4.474;2023-07-13T01:32:47;9.45;;;1.00;;
72611;SDS011;60655;52.182;4.474;2023-07-13T01:34:48;6.30;;;0.98;;
72611;SDS011;60655;52.182;4.474;2023-07-13T01:36:49;8.52;;;1.35;;
72611;SDS011;60655;52.182;4.474;2023-07-13T01:38:54;4.75;;;0.95;;
72611;SDS011;60655;52.182;4.474;2023-07-13T01:40:55;5.22;;;0.90;;
72611;SDS011;60655;52.182;4.474;2023-07-13T01:42:57;5.32;;;0.77;;
72611;SDS011;60655;52.182;4.474;2023-07-13T01:44:58;5.95;;;0.80;;
72611;SDS011;60655;52.182;4.474;2023-07-13T01:47:00;6.80;;;1.23;;
72611;SDS011;60655;52.182;4.474;2023-07-13T01:49:04;6.50;;;0.98;;
72611;SDS011;60655;52.182;4.474;2023-07-13T01:51:05;11.93;;;1.10;;
72611;SDS011;60655;52.182;4.474;2023-07-13T01:53:06;3.28;;;0.88;;
72611;SDS011;60655;52.182;4.474;2023-07-13T01:55:07;5.18;;;1.00;;
72611;SDS011;60655;52.182;4.474;2023-07-13T01:57:08;6.47;;;1.05;;
72611;SDS011;60655;52.182;4.474;2023-07-13T01:59:09;4.47;;;0.82;;
72611;SDS011;60655;52.182;4.474;2023-07-13T02:01:10;5.47;;;0.90;;
72611;SDS011;60655;52.182;4.474;2023-07-13T02:03:11;5.45;;;1.30;;
72611;SDS011;60655;52.182;4.474;2023-07-13T02:05:12;5.55;;;0.90;;
72611;SDS011;60655;52.182;4.474;2023-07-13T02:07:14;7.28;;;1.20;;
72611;SDS011;60655;52.182;4.474;2023-07-13T02:09:15;4.30;;;0.93;;
72611;SDS011;60655;52.182;4.474;2023-07-13T02:11:17;5.13;;;1.10;;
72611;SDS011;60655;52.182;4.474;2023-07-13T02:13:18;5.60;;;1.13;;
72611;SDS011;60655;52.182;4.474;2023-07-13T02:15:19;5.00;;;1.10;;
72611;SDS011;60655;52.182;4.474;2023-07-13T02:17:20;8.38;;;1.25;;
72611;SDS011;60655;52.182;4.474;2023-07-13T02:19:20;6.18;;;1.13;;
72611;SDS011;60655;52.182;4.474;2023-07-13T02:21:22;5.68;;;1.02;;
72611;SDS011;60655;52.182;4.474;2023-07-13T02:23:24;6.13;;;1.17;;
72611;SDS011;60655;52.182;4.474;2023-07-13T02:25:25;6.43;;;1.23;;
72611;SDS011;60655;52.182;4.474;2023-07-13T02:27:27;5.85;;;1.02;;
72611;SDS011;60655;52.182;4.474;2023-07-13T02:29:28;8.15;;;1.10;;
72611;SDS011;60655;52.182;4.474;2023-07-13T02:31:29;4.40;;;1.00;;
72611;SDS011;60655;52.182;4.474;2023-07-13T02:33:30;6.38;;;1.15;;
72611;SDS011;60655;52.182;4.474;2023-07-13T02:35:31;12.02;;;1.38;;
72611;SDS011;60655;52.182;4.474;2023-07-13T02:37:32;5.65;;;1.20;;
72611;SDS011;60655;52.182;4.474;2023-07-13T02:39:33;5.35;;;1.27;;
72611;SDS011;60655;52.182;4.474;2023-07-13T02:41:34;13.70;;;1.40;;
72611;SDS011;60655;52.182;4.474;2023-07-13T02:43:37;4.32;;;0.95;;
72611;SDS011;60655;52.182;4.474;2023-07-13T02:45:38;6.55;;;1.10;;
72611;SDS011;60655;52.182;4.474;2023-07-13T02:47:44;8.02;;;1.38;;
72611;SDS011;60655;52.182;4.474;2023-07-13T02:49:45;8.15;;;1.20;;
72611;SDS011;60655;52.182;4.474;2023-07-13T02:51:46;8.10;;;1.33;;
72611;SDS011;60655;52.182;4.474;2023-07-13T02:53:48;6.35;;;1.50;;
72611;SDS011;60655;52.182;4.474;2023-07-13T02:55:48;6.40;;;1.30;;
72611;SDS011;60655;52.182;4.474;2023-07-13T02:57:49;4.88;;;1.17;;
72611;SDS011;60655;52.182;4.474;2023-07-13T02:59:51;10.32;;;1.45;;
72611;SDS011;60655;52.182;4.474;2023-07-13T03:01:52;4.03;;;1.30;;
72611;SDS011;60655;52.182;4.474;2023-07-13T03:03:53;8.02;;;1.40;;
72611;SDS011;60655;52.182;4.474;2023-07-13T03:05:58;7.50;;;1.50;;
72611;SDS011;60655;52.182;4.474;2023-07-13T03:08:00;5.90;;;1.15;;
72611;SDS011;60655;52.182;4.474;2023-07-13T03:10:01;11.27;;;1.70;;
72611;SDS011;60655;52.182;4.474;2023-07-13T03:12:03;5.80;;;1.27;;
72611;SDS011;60655;52.182;4.474;2023-07-13T03:14:04;8.30;;;1.52;;
72611;SDS011;60655;52.182;4.474;2023-07-13T03:16:05;9.95;;;1.38;;
72611;SDS011;60655;52.182;4.474;2023-07-13T03:18:07;8.07;;;1.70;;
72611;SDS011;60655;52.182;4.474;2023-07-13T03:20:08;6.80;;;1.80;;
72611;SDS011;60655;52.182;4.474;2023-07-13T03:22:09;12.40;;;2.00;;
72611;SDS011;60655;52.182;4.474;2023-07-13T03:24:10;9.27;;;1.50;;
72611;SDS011;60655;52.182;4.474;2023-07-13T03:26:13;9.45;;;1.88;;
72611;SDS011;60655;52.182;4.474;2023-07-13T03:28:16;10.52;;;1.95;;
72611;SDS011;60655;52.182;4.474;2023-07-13T03:30:17;12.70;;;2.30;;
72611;SDS011;60655;52.182;4.474;2023-07-13T03:32:18;10.88;;;2.03;;
72611;SDS011;60655;52.182;4.474;2023-07-13T03:34:19;11.82;;;2.28;;
72611;SDS011;60655;52.182;4.474;2023-07-13T03:36:24;10.63;;;1.77;;
72611;SDS011;60655;52.182;4.474;2023-07-13T03:38:28;9.25;;;2.08;;
72611;SDS011;60655;52.182;4.474;2023-07-13T03:40:29;8.57;;;2.00;;
72611;SDS011;60655;52.182;4.474;2023-07-13T03:42:33;10.93;;;1.67;;
72611;SDS011;60655;52.182;4.474;2023-07-13T03:44:34;9.77;;;2.08;;
72611;SDS011;60655;52.182;4.474;2023-07-13T03:46:36;14.77;;;2.10;;
72611;SDS011;60655;52.182;4.474;2023-07-13T03:48:37;8.38;;;1.92;;
72611;SDS011;60655;52.182;4.474;2023-07-13T03:50:40;10.68;;;1.90;;
72611;SDS011;60655;52.182;4.474;2023-07-13T03:52:41;12.45;;;2.17;;
72611;SDS011;60655;52.182;4.474;2023-07-13T03:54:42;16.20;;;2.40;;
72611;SDS011;60655;52.182;4.474;2023-07-13T03:56:43;10.73;;;2.10;;
72611;SDS011;60655;52.182;4.474;2023-07-13T03:58:48;9.07;;;1.80;;
72611;SDS011;60655;52.182;4.474;2023-07-13T04:00:50;10.57;;;1.88;;
72611;SDS011;60655;52.182;4.474;2023-07-13T04:02:51;7.35;;;1.90;;
72611;SDS011;60655;52.182;4.474;2023-07-13T04:04:52;17.05;;;2.22;;
72611;SDS011;60655;52.182;4.474;2023-07-13T04:06:54;14.32;;;2.10;;
72611;SDS011;60655;52.182;4.474;2023-07-13T04:08:56;10.85;;;1.80;;
72611;SDS011;60655;52.182;4.474;2023-07-13T04:10:59;11.13;;;2.20;;
72611;SDS011;60655;52.182;4.474;2023-07-13T04:13:01;7.78;;;1.98;;
72611;SDS011;60655;52.182;4.474;2023-07-13T04:15:02;11.93;;;2.20;;
72611;SDS011;60655;52.182;4.474;2023-07-13T04:17:03;14.13;;;2.17;;
72611;SDS011;60655;52.182;4.474;2023-07-13T04:19:06;7.95;;;1.80;;
72611;SDS011;60655;52.182;4.474;2023-07-13T04:21:07;10.82;;;2.10;;
72611;SDS011;60655;52.182;4.474;2023-07-13T04:23:09;12.73;;;2.05;;
72611;SDS011;60655;52.182;4.474;2023-07-13T04:25:10;10.80;;;2.10;;
72611;SDS011;60655;52.182;4.474;2023-07-13T04:27:11;13.15;;;2.05;;
72611;SDS011;60655;52.182;4.474;2023-07-13T04:29:12;17.42;;;2.35;;
72611;SDS011;60655;52.182;4.474;2023-07-13T04:31:13;11.52;;;1.92;;
72611;SDS011;60655;52.182;4.474;2023-07-13T04:33:15;6.75;;;1.88;;
72611;SDS011;60655;52.182;4.474;2023-07-13T04:35:22;11.48;;;2.25;;
72611;SDS011;60655;52.182;4.474;2023-07-13T04:37:24;11.32;;;1.90;;
72611;SDS011;60655;52.182;4.474;2023-07-13T04:39:24;9.98;;;2.00;;
72611;SDS011;60655;52.182;4.474;2023-07-13T04:41:25;13.13;;;2.03;;
72611;SDS011;60655;52.182;4.474;2023-07-13T04:43:27;13.18;;;2.40;;
72611;SDS011;60655;52.182;4.474;2023-07-13T04:45:28;10.60;;;1.85;;
72611;SDS011;60655;52.182;4.474;2023-07-13T04:47:30;8.63;;;2.13;;
72611;SDS011;60655;52.182;4.474;2023-07-13T04:49:34;8.30;;;2.28;;
72611;SDS011;60655;52.182;4.474;2023-07-13T04:51:35;10.23;;;2.25;;
72611;SDS011;60655;52.182;4.474;2023-07-13T04:53:36;9.30;;;1.90;;
72611;SDS011;60655;52.182;4.474;2023-07-13T04:55:37;12.73;;;2.40;;
72611;SDS011;60655;52.182;4.474;2023-07-13T04:57:38;9.07;;;2.10;;
72611;SDS011;60655;52.182;4.474;2023-07-13T04:59:39;10.77;;;2.33;;
72611;SDS011;60655;52.182;4.474;2023-07-13T05:01:41;8.60;;;2.20;;
72611;SDS011;60655;52.182;4.474;2023-07-13T05:03:42;7.45;;;2.00;;
72611;SDS011;60655;52.182;4.474;2023-07-13T05:05:43;10.05;;;2.13;;
72611;SDS011;60655;52.182;4.474;2023-07-13T05:07:44;11.75;;;2.30;;
72611;SDS011;60655;52.182;4.474;2023-07-13T05:09:45;9.98;;;2.22;;
72611;SDS011;60655;52.182;4.474;2023-07-13T05:11:46;9.73;;;1.77;;
72611;SDS011;60655;52.182;4.474;2023-07-13T05:13:47;9.18;;;2.00;;
72611;SDS011;60655;52.182;4.474;2023-07-13T05:15:55;11.32;;;2.03;;
72611;SDS011;60655;52.182;4.474;2023-07-13T05:17:57;8.52;;;1.63;;
72611;SDS011;60655;52.182;4.474;2023-07-13T05:19:58;10.02;;;2.13;;
72611;SDS011;60655;52.182;4.474;2023-07-13T05:21:59;10.23;;;2.20;;
72611;SDS011;60655;52.182;4.474;2023-07-13T05:24:00;8.40;;;2.13;;
72611;SDS011;60655;52.182;4.474;2023-07-13T05:26:02;9.98;;;1.90;;
72611;SDS011;60655;52.182;4.474;2023-07-13T05:28:04;7.75;;;1.85;;
72611;SDS011;60655;52.182;4.474;2023-07-13T05:30:05;8.68;;;2.35;;
72611;SDS011;60655;52.182;4.474;2023-07-13T05:32:07;13.48;;;2.30;;
72611;SDS011;60655;52.182;4.474;2023-07-13T05:34:07;11.05;;;2.15;;
72611;SDS011;60655;52.182;4.474;2023-07-13T05:36:08;9.55;;;2.20;;
72611;SDS011;60655;52.182;4.474;2023-07-13T05:38:09;6.55;;;1.98;;
72611;SDS011;60655;52.182;4.474;2023-07-13T05:40:10;11.43;;;2.15;;
72611;SDS011;60655;52.182;4.474;2023-07-13T05:42:11;8.63;;;2.10;;
72611;SDS011;60655;52.182;4.474;2023-07-13T05:44:15;7.97;;;1.70;;
72611;SDS011;60655;52.182;4.474;2023-07-13T05:46:16;9.63;;;2.00;;
72611;SDS011;60655;52.182;4.474;2023-07-13T05:48:17;5.63;;;2.10;;
72611;SDS011;60655;52.182;4.474;2023-07-13T05:50:18;10.20;;;2.03;;
72611;SDS011;60655;52.182;4.474;2023-07-13T05:52:19;8.30;;;2.10;;
72611;SDS011;60655;52.182;4.474;2023-07-13T05:54:20;9.43;;;1.98;;
72611;SDS011;60655;52.182;4.474;2023-07-13T05:56:21;9.98;;;2.20;;
72611;SDS011;60655;52.182;4.474;2023-07-13T05:58:22;7.32;;;2.05;;
72611;SDS011;60655;52.182;4.474;2023-07-13T06:00:23;9.40;;;2.03;;
72611;SDS011;60655;52.182;4.474;2023-07-13T06:02:25;10.57;;;2.40;;
72611;SDS011;60655;52.182;4.474;2023-07-13T06:04:27;11.98;;;2.33;;
72611;SDS011;60655;52.182;4.474;2023-07-13T06:06:28;8.82;;;2.17;;
72611;SDS011;60655;52.182;4.474;2023-07-13T06:08:28;13.15;;;2.25;;
72611;SDS011;60655;52.182;4.474;2023-07-13T06:10:32;8.55;;;2.22;;
72611;SDS011;60655;52.182;4.474;2023-07-13T06:12:33;7.70;;;2.35;;
72611;SDS011;60655;52.182;4.474;2023-07-13T06:14:34;9.77;;;2.00;;
72611;SDS011;60655;52.182;4.474;2023-07-13T06:16:36;7.65;;;1.98;;
72611;SDS011;60655;52.182;4.474;2023-07-13T06:18:37;5.22;;;1.77;;
72611;SDS011;60655;52.182;4.474;2023-07-13T06:20:38;9.25;;;2.35;;
72611;SDS011;60655;52.182;4.474;2023-07-13T06:22:40;7.85;;;2.10;;
72611;SDS011;60655;52.182;4.474;2023-07-13T06:24:41;9.93;;;2.00;;
72611;SDS011;60655;52.182;4.474;2023-07-13T06:26:42;10.25;;;2.50;;
72611;SDS011;60655;52.182;4.474;2023-07-13T06:28:43;11.60;;;2.10;;
72611;SDS011;60655;52.182;4.474;2023-07-13T06:30:44;11.82;;;2.03;;
72611;SDS011;60655;52.182;4.474;2023-07-13T06:32:45;7.97;;;2.15;;
72611;SDS011;60655;52.182;4.474;2023-07-13T06:34:46;7.28;;;1.83;;
72611;SDS011;60655;52.182;4.474;2023-07-13T06:36:47;14.07;;;2.00;;
72611;SDS011;60655;52.182;4.474;2023-07-13T06:38:48;8.13;;;1.90;;
72611;SDS011;60655;52.182;4.474;2023-07-13T06:40:49;11.90;;;2.17;;
72611;SDS011;60655;52.182;4.474;2023-07-13T06:42:50;9.18;;;2.33;;
72611;SDS011;60655;52.182;4.474;2023-07-13T06:44:51;8.98;;;2.13;;
72611;SDS011;60655;52.182;4.474;2023-07-13T06:46:52;5.13;;;1.70;;
72611;SDS011;60655;52.182;4.474;2023-07-13T06:48:53;6.78;;;1.90;;
72611;SDS011;60655;52.182;4.474;2023-07-13T06:50:54;9.15;;;2.00;;
72611;SDS011;60655;52.182;4.474;2023-07-13T06:52:55;8.20;;;1.55;;
72611;SDS011;60655;52.182;4.474;2023-07-13T06:54:56;7.53;;;1.90;;
72611;SDS011;60655;52.182;4.474;2023-07-13T06:56:57;8.77;;;1.98;;
72611;SDS011;60655;52.182;4.474;2023-07-13T06:58:58;10.65;;;2.08;;
72611;SDS011;60655;52.182;4.474;2023-07-13T07:00:59;5.90;;;1.88;;
72611;SDS011;60655;52.182;4.474;2023-07-13T07:03:00;8.48;;;1.92;;
72611;SDS011;60655;52.182;4.474;2023-07-13T07:05:01;7.18;;;1.88;;
72611;SDS011;60655;52.182;4.474;2023-07-13T07:07:02;8.25;;;2.05;;
72611;SDS011;60655;52.182;4.474;2023-07-13T07:09:03;7.95;;;1.83;;
72611;SDS011;60655;52.182;4.474;2023-07-13T07:11:05;7.95;;;1.85;;
72611;SDS011;60655;52.182;4.474;2023-07-13T07:13:08;5.20;;;1.70;;
72611;SDS011;60655;52.182;4.474;2023-07-13T07:15:10;7.55;;;1.95;;
72611;SDS011;60655;52.182;4.474;2023-07-13T07:17:11;6.05;;;1.60;;
72611;SDS011;60655;52.182;4.474;2023-07-13T07:19:12;9.82;;;2.03;;
72611;SDS011;60655;52.182;4.474;2023-07-13T07:21:13;7.60;;;1.90;;
72611;SDS011;60655;52.182;4.474;2023-07-13T07:23:15;7.03;;;2.13;;
72611;SDS011;60655;52.182;4.474;2023-07-13T07:25:16;7.72;;;1.90;;
72611;SDS011;60655;52.182;4.474;2023-07-13T07:27:17;11.80;;;2.15;;
72611;SDS011;60655;52.182;4.474;2023-07-13T07:29:18;8.48;;;1.80;;
72611;SDS011;60655;52.182;4.474;2023-07-13T07:31:19;5.13;;;1.50;;
72611;SDS011;60655;52.182;4.474;2023-07-13T07:33:20;9.32;;;1.88;;
72611;SDS011;60655;52.182;4.474;2023-07-13T07:35:21;6.13;;;1.60;;
72611;SDS011;60655;52.182;4.474;2023-07-13T07:37:22;11.00;;;1.85;;
72611;SDS011;60655;52.182;4.474;2023-07-13T07:39:23;7.55;;;1.83;;
72611;SDS011;60655;52.182;4.474;2023-07-13T07:41:24;10.55;;;1.73;;
72611;SDS011;60655;52.182;4.474;2023-07-13T07:43:25;7.72;;;1.92;;
72611;SDS011;60655;52.182;4.474;2023-07-13T07:45:26;11.65;;;2.15;;
72611;SDS011;60655;52.182;4.474;2023-07-13T07:47:28;5.57;;;1.58;;
72611;SDS011;60655;52.182;4.474;2023-07-13T07:49:30;8.00;;;1.63;;
72611;SDS011;60655;52.182;4.474;2023-07-13T07:51:31;6.95;;;1.70;;
72611;SDS011;60655;52.182;4.474;2023-07-13T07:53:32;12.05;;;2.08;;
72611;SDS011;60655;52.182;4.474;2023-07-13T07:55:33;9.65;;;2.30;;
72611;SDS011;60655;52.182;4.474;2023-07-13T07:57:35;9.85;;;2.10;;
72611;SDS011;60655;52.182;4.474;2023-07-13T07:59:37;8.23;;;1.98;;
72611;SDS011;60655;52.182;4.474;2023-07-13T08:01:38;5.82;;;1.65;;
72611;SDS011;60655;52.182;4.474;2023-07-13T08:03:39;8.55;;;1.73;;
72611;SDS011;60655;52.182;4.474;2023-07-13T08:05:40;9.18;;;2.00;;
72611;SDS011;60655;52.182;4.474;2023-07-13T08:07:41;10.70;;;2.35;;
72611;SDS011;60655;52.182;4.474;2023-07-13T08:09:42;8.50;;;1.95;;
72611;SDS011;60655;52.182;4.474;2023-07-13T08:11:43;10.95;;;2.13;;
72611;SDS011;60655;52.182;4.474;2023-07-13T08:13:44;9.52;;;2.30;;
72611;SDS011;60655;52.182;4.474;2023-07-13T08:15:48;8.18;;;2.10;;
72611;SDS011;60655;52.182;4.474;2023-07-13T08:17:50;11.32;;;2.03;;
72611;SDS011;60655;52.182;4.474;2023-07-13T08:19:51;11.93;;;2.45;;
72611;SDS011;60655;52.182;4.474;2023-07-13T08:21:52;10.50;;;2.20;;
72611;SDS011;60655;52.182;4.474;2023-07-13T08:23:53;7.20;;;2.10;;
72611;SDS011;60655;52.182;4.474;2023-07-13T08:25:54;10.23;;;2.20;;
72611;SDS011;60655;52.182;4.474;2023-07-13T08:27:55;14.27;;;2.40;;
72611;SDS011;60655;52.182;4.474;2023-07-13T08:29:56;7.13;;;1.85;;
72611;SDS011;60655;52.182;4.474;2023-07-13T08:31:57;14.65;;;2.40;;
72611;SDS011;60655;52.182;4.474;2023-07-13T08:33:58;8.60;;;1.90;;
72611;SDS011;60655;52.182;4.474;2023-07-13T08:35:59;9.13;;;2.40;;
72611;SDS011;60655;52.182;4.474;2023-07-13T08:38:00;9.88;;;2.20;;
72611;SDS011;60655;52.182;4.474;2023-07-13T08:40:01;9.68;;;1.92;;
72611;SDS011;60655;52.182;4.474;2023-07-13T08:42:07;8.43;;;1.85;;
72611;SDS011;60655;52.182;4.474;2023-07-13T08:44:41;8.18;;;2.17;;
72611;SDS011;60655;52.182;4.474;2023-07-13T08:46:59;10.90;;;2.10;;
72611;SDS011;60655;52.182;4.474;2023-07-13T08:49:10;9.02;;;2.10;;
72611;SDS011;60655;52.182;4.474;2023-07-13T08:51:26;8.60;;;1.90;;
72611;SDS011;60655;52.182;4.474;2023-07-13T08:53:49;8.73;;;2.00;;
72611;SDS011;60655;52.182;4.474;2023-07-13T08:55:55;7.68;;;2.25;;
72611;SDS011;60655;52.182;4.474;2023-07-13T08:58:03;9.52;;;2.13;;
72611;SDS011;60655;52.182;4.474;2023-07-13T09:00:11;8.10;;;1.90;;
72611;SDS011;60655;52.182;4.474;2023-07-13T09:04:35;7.10;;;1.85;;
72611;SDS011;60655;52.182;4.474;2023-07-13T09:06:57;11.02;;;2.30;;
72611;SDS011;60655;52.182;4.474;2023-07-13T09:09:44;11.00;;;2.17;;
72611;SDS011;60655;52.182;4.474;2023-07-13T09:11:51;9.90;;;2.15;;
72611;SDS011;60655;52.182;4.474;2023-07-13T09:14:04;7.70;;;2.33;;
72611;SDS011;60655;52.182;4.474;2023-07-13T09:16:25;8.30;;;1.83;;
72611;SDS011;60655;52.182;4.474;2023-07-13T09:18:36;9.07;;;2.40;;
72611;SDS011;60655;52.182;4.474;2023-07-13T09:20:46;10.65;;;2.22;;
72611;SDS011;60655;52.182;4.474;2023-07-13T09:22:53;8.05;;;2.30;;
72611;SDS011;60655;52.182;4.474;2023-07-13T09:27:09;9.45;;;2.35;;
72611;SDS011;60655;52.182;4.474;2023-07-13T09:29:24;7.60;;;2.30;;
72611;SDS011;60655;52.182;4.474;2023-07-13T09:31:33;9.98;;;2.15;;
72611;SDS011;60655;52.182;4.474;2023-07-13T09:33:39;9.43;;;2.20;;
72611;SDS011;60655;52.182;4.474;2023-07-13T09:35:41;10.85;;;2.28;;
72611;SDS011;60655;52.182;4.474;2023-07-13T09:37:43;9.27;;;2.50;;
72611;SDS011;60655;52.182;4.474;2023-07-13T09:39:46;8.70;;;2.20;;
72611;SDS011;60655;52.182;4.474;2023-07-13T09:41:51;11.25;;;2.50;;
72611;SDS011;60655;52.182;4.474;2023-07-13T09:44:01;9.65;;;2.13;;
72611;SDS011;60655;52.182;4.474;2023-07-13T09:46:19;13.02;;;2.95;;
72611;SDS011;60655;52.182;4.474;2023-07-13T09:50:24;11.40;;;2.00;;
72611;SDS011;60655;52.182;4.474;2023-07-13T09:52:26;12.23;;;2.58;;
72611;SDS011;60655;52.182;4.474;2023-07-13T09:54:28;9.30;;;2.22;;
72611;SDS011;60655;52.182;4.474;2023-07-13T09:56:29;15.25;;;2.40;;
72611;SDS011;60655;52.182;4.474;2023-07-13T09:58:30;8.02;;;2.10;;
72611;SDS011;60655;52.182;4.474;2023-07-13T10:00:32;8.85;;;2.33;;
72611;SDS011;60655;52.182;4.474;2023-07-13T10:02:34;10.75;;;2.30;;
72611;SDS011;60655;52.182;4.474;2023-07-13T10:04:36;14.05;;;2.58;;
72611;SDS011;60655;52.182;4.474;2023-07-13T10:06:38;8.95;;;2.10;;
72611;SDS011;60655;52.182;4.474;2023-07-13T10:08:41;9.10;;;2.25;;
72611;SDS011;60655;52.182;4.474;2023-07-13T10:10:45;7.90;;;2.40;;
72611;SDS011;60655;52.182;4.474;2023-07-13T10:12:46;5.97;;;2.28;;
72611;SDS011;60655;52.182;4.474;2023-07-13T10:14:48;8.50;;;1.92;;
72611;SDS011;60655;52.182;4.474;2023-07-13T10:16:49;12.88;;;2.63;;
72611;SDS011;60655;52.182;4.474;2023-07-13T10:19:02;9.95;;;2.00;;
72611;SDS011;60655;52.182;4.474;2023-07-13T10:21:13;8.15;;;2.20;;
72611;SDS011;60655;52.182;4.474;2023-07-13T10:23:19;11.02;;;2.47;;
72611;SDS011;60655;52.182;4.474;2023-07-13T10:25:29;8.63;;;2.20;;
72611;SDS011;60655;52.182;4.474;2023-07-13T10:27:33;12.90;;;2.60;;
72611;SDS011;60655;52.182;4.474;2023-07-13T10:29:37;9.77;;;2.20;;
72611;SDS011;60655;52.182;4.474;2023-07-13T10:31:44;8.50;;;2.25;;
72611;SDS011;60655;52.182;4.474;2023-07-13T10:33:45;10.98;;;2.42;;
72611;SDS011;60655;52.182;4.474;2023-07-13T10:35:46;8.13;;;1.95;;
72611;SDS011;60655;52.182;4.474;2023-07-13T10:39:58;10.98;;;2.50;;
72611;SDS011;60655;52.182;4.474;2023-07-13T10:42:03;10.38;;;2.67;;
72611;SDS011;60655;52.182;4.474;2023-07-13T10:44:15;9.70;;;2.25;;
72611;SDS011;60655;52.182;4.474;2023-07-13T10:46:22;8.68;;;2.35;;
72611;SDS011;60655;52.182;4.474;2023-07-13T10:48:29;9.32;;;2.35;;
72611;SDS011;60655;52.182;4.474;2023-07-13T10:50:32;7.85;;;2.10;;
72611;SDS011;60655;52.182;4.474;2023-07-13T10:52:42;8.82;;;2.20;;
72611;SDS011;60655;52.182;4.474;2023-07-13T10:54:50;7.25;;;2.00;;
72611;SDS011;60655;52.182;4.474;2023-07-13T10:59:24;10.82;;;2.35;;
72611;SDS011;60655;52.182;4.474;2023-07-13T11:01:38;10.00;;;2.47;;
72611;SDS011;60655;52.182;4.474;2023-07-13T11:04:11;9.48;;;2.40;;
72611;SDS011;60655;52.182;4.474;2023-07-13T11:06:33;11.05;;;2.45;;
72611;SDS011;60655;52.182;4.474;2023-07-13T11:10:51;6.03;;;2.17;;
72611;SDS011;60655;52.182;4.474;2023-07-13T11:12:56;13.35;;;3.00;;
72611;SDS011;60655;52.182;4.474;2023-07-13T11:17:23;7.30;;;2.50;;
72611;SDS011;60655;52.182;4.474;2023-07-13T11:19:37;9.38;;;2.45;;
72611;SDS011;60655;52.182;4.474;2023-07-13T11:26:02;6.47;;;2.20;;
72611;SDS011;60655;52.182;4.474;2023-07-13T11:32:24;8.93;;;3.00;;
72611;SDS011;60655;52.182;4.474;2023-07-13T11:34:33;8.50;;;2.30;;
72611;SDS011;60655;52.182;4.474;2023-07-13T11:36:37;6.85;;;2.35;;
72611;SDS011;60655;52.182;4.474;2023-07-13T11:38:51;10.07;;;2.67;;
72611;SDS011;60655;52.182;4.474;2023-07-13T11:41:00;8.43;;;2.47;;
72611;SDS011;60655;52.182;4.474;2023-07-13T11:43:06;9.20;;;2.47;;
72611;SDS011;60655;52.182;4.474;2023-07-13T11:45:21;8.93;;;2.30;;
72611;SDS011;60655;52.182;4.474;2023-07-13T11:47:23;9.45;;;2.88;;
72611;SDS011;60655;52.182;4.474;2023-07-13T11:49:30;14.00;;;2.47;;
72611;SDS011;60655;52.182;4.474;2023-07-13T11:51:33;7.88;;;2.40;;
72611;SDS011;60655;52.182;4.474;2023-07-13T11:53:38;8.75;;;2.65;;
72611;SDS011;60655;52.182;4.474;2023-07-13T11:55:41;9.82;;;2.60;;
72611;SDS011;60655;52.182;4.474;2023-07-13T11:57:50;13.02;;;2.58;;
72611;SDS011;60655;52.182;4.474;2023-07-13T11:59:54;10.77;;;2.63;;
72611;SDS011;60655;52.182;4.474;2023-07-13T12:01:56;8.35;;;2.38;;
72611;SDS011;60655;52.182;4.474;2023-07-13T12:04:02;7.53;;;2.25;;
72611;SDS011;60655;52.182;4.474;2023-07-13T12:06:05;9.35;;;2.22;;
72611;SDS011;60655;52.182;4.474;2023-07-13T12:08:21;8.13;;;2.42;;
72611;SDS011;60655;52.182;4.474;2023-07-13T12:10:24;7.43;;;2.20;;
72611;SDS011;60655;52.182;4.474;2023-07-13T12:12:27;8.23;;;2.22;;
72611;SDS011;60655;52.182;4.474;2023-07-13T12:14:33;9.30;;;2.42;;
72611;SDS011;60655;52.182;4.474;2023-07-13T12:16:34;8.40;;;2.40;;
72611;SDS011;60655;52.182;4.474;2023-07-13T12:18:35;8.05;;;2.30;;
72611;SDS011;60655;52.182;4.474;2023-07-13T12:20:37;7.82;;;2.20;;
72611;SDS011;60655;52.182;4.474;2023-07-13T12:22:45;7.97;;;2.30;;
72611;SDS011;60655;52.182;4.474;2023-07-13T12:24:47;6.32;;;2.28;;
72611;SDS011;60655;52.182;4.474;2023-07-13T12:26:53;9.70;;;2.22;;
72611;SDS011;60655;52.182;4.474;2023-07-13T12:29:04;5.43;;;1.90;;
72611;SDS011;60655;52.182;4.474;2023-07-13T12:31:07;8.68;;;2.42;;
72611;SDS011;60655;52.182;4.474;2023-07-13T12:33:23;10.98;;;2.25;;
72611;SDS011;60655;52.182;4.474;2023-07-13T12:35:29;7.43;;;2.35;;
72611;SDS011;60655;52.182;4.474;2023-07-13T12:37:33;9.57;;;2.05;;
72611;SDS011;60655;52.182;4.474;2023-07-13T12:39:37;8.70;;;2.33;;
72611;SDS011;60655;52.182;4.474;2023-07-13T12:41:47;5.00;;;1.70;;
72611;SDS011;60655;52.182;4.474;2023-07-13T12:43:49;6.50;;;1.83;;
72611;SDS011;60655;52.182;4.474;2023-07-13T12:45:57;7.60;;;2.45;;